createdAt,value
2019-05-06T00:00:58.378Z,-0.64
2019-05-06T00:01:54.000Z,-0.60
2019-05-06T00:02:54.246Z,-0.64
2019-05-06T00:03:54.026Z,-0.67
2019-05-06T00:04:54.064Z,-0.72
2019-05-06T00:05:54.144Z,-0.67
2019-05-06T00:06:51.967Z,-0.67
2019-05-06T00:07:53.810Z,-0.64
2019-05-06T00:08:51.891Z,-0.72
2019-05-06T00:09:53.901Z,-0.67
2019-05-06T00:10:54.082Z,-0.67
2019-05-06T00:11:54.106Z,-0.64
2019-05-06T00:12:53.575Z,-0.70
2019-05-06T00:13:54.099Z,-0.75
2019-05-06T00:14:54.061Z,-0.72
2019-05-06T00:15:51.826Z,-0.67
2019-05-06T00:16:51.807Z,-0.70
2019-05-06T00:17:53.797Z,-0.75
2019-05-06T00:18:53.838Z,-0.78
2019-05-06T00:19:53.961Z,-0.80
2019-05-06T00:20:54.810Z,-0.75
2019-05-06T00:21:53.870Z,-0.72
2019-05-06T00:22:51.734Z,-0.73
2019-05-06T00:23:51.724Z,-0.75
2019-05-06T00:24:51.713Z,-0.79
2019-05-06T00:25:53.540Z,-0.72
2019-05-06T00:26:55.227Z,-0.70
2019-05-06T00:27:54.406Z,-0.67
2019-05-06T00:28:53.759Z,-0.67
2019-05-06T00:29:51.674Z,-0.70
2019-05-06T00:30:51.750Z,-0.69
2019-05-06T00:31:53.530Z,-0.75
2019-05-06T00:32:53.737Z,-0.70
2019-05-06T00:33:53.830Z,-0.70
2019-05-06T00:34:51.599Z,-0.75
2019-05-06T00:35:51.589Z,-0.70
2019-05-06T00:36:51.583Z,-0.67
2019-05-06T00:37:53.571Z,-0.62
2019-05-06T00:38:51.565Z,-0.62
2019-05-06T00:39:53.831Z,-0.69
2019-05-06T00:40:51.530Z,-0.54
2019-05-06T00:41:51.526Z,-0.51
2019-05-06T00:42:51.511Z,-0.61
2019-05-06T00:43:51.520Z,-0.42
2019-05-06T00:44:53.640Z,-0.40
2019-05-06T00:45:53.175Z,-0.37
2019-05-06T00:46:51.463Z,-0.43
2019-05-06T00:47:53.494Z,-0.46
2019-05-06T00:48:51.450Z,-0.44
2019-05-06T00:49:51.444Z,-0.47
2019-05-06T00:50:53.465Z,-0.40
2019-05-06T00:51:51.438Z,-0.42
2019-05-06T00:52:51.398Z,-0.36
2019-05-06T00:53:51.394Z,-0.47
2019-05-06T00:54:51.405Z,-0.36
2019-05-06T00:55:51.370Z,-0.34
2019-05-06T00:56:51.352Z,-0.40
2019-05-06T00:57:51.355Z,-0.34
2019-05-06T00:58:51.389Z,-0.39
2019-05-06T00:59:53.724Z,-0.39
2019-05-06T01:00:53.284Z,-0.34
2019-05-06T01:01:51.300Z,-0.40
2019-05-06T01:02:51.291Z,-0.29
2019-05-06T01:03:53.568Z,-0.28
2019-05-06T01:04:51.289Z,-0.22
2019-05-06T01:05:51.289Z,-0.33
2019-05-06T01:06:51.248Z,-0.26
2019-05-06T01:07:51.239Z,-0.23
2019-05-06T01:08:51.230Z,-0.21
2019-05-06T01:09:51.207Z,-0.16
2019-05-06T01:10:51.229Z,-0.21
2019-05-06T01:11:51.214Z,-0.14
2019-05-06T01:12:51.178Z,-0.14
2019-05-06T01:13:51.165Z,-0.05
2019-05-06T01:14:51.154Z,-0.07
2019-05-06T01:15:51.272Z,-0.03
2019-05-06T01:16:51.159Z,-0.04
2019-05-06T01:17:51.140Z,-0.01
2019-05-06T01:18:51.111Z,-0.10
2019-05-06T01:19:51.102Z,-0.23
2019-05-06T01:20:51.093Z,-0.18
2019-05-06T01:21:51.082Z,-0.15
2019-05-06T01:22:51.123Z,-0.22
2019-05-06T01:23:51.059Z,-0.15
2019-05-06T01:24:51.039Z,-0.18
2019-05-06T01:25:51.033Z,-0.19
2019-05-06T01:26:51.015Z,-0.23
2019-05-06T01:27:51.012Z,-0.23
2019-05-06T01:28:51.080Z,-0.31
2019-05-06T01:29:50.988Z,-0.34
2019-05-06T01:30:50.981Z,-0.36
2019-05-06T01:31:50.966Z,-0.37
2019-05-06T01:32:50.956Z,-0.43
2019-05-06T01:33:50.949Z,-0.42
2019-05-06T01:34:50.968Z,-0.39
2019-05-06T01:35:50.920Z,-0.40
2019-05-06T01:36:50.933Z,-0.46
2019-05-06T01:37:50.906Z,-0.40
2019-05-06T01:38:50.887Z,-0.44
2019-05-06T01:39:50.895Z,-0.51
2019-05-06T01:40:50.906Z,-0.55
2019-05-06T01:41:50.859Z,-0.58
2019-05-06T01:42:50.851Z,-0.58
2019-05-06T01:43:50.832Z,-0.55
2019-05-06T01:44:50.843Z,-0.61
2019-05-06T01:45:50.813Z,-0.72
2019-05-06T01:46:50.843Z,-0.64
2019-05-06T01:47:50.788Z,-0.55
2019-05-06T01:48:50.777Z,-0.57
2019-05-06T01:49:50.765Z,-0.70
2019-05-06T01:50:50.786Z,-0.69
2019-05-06T01:51:50.742Z,-0.61
2019-05-06T01:52:50.755Z,-0.70
2019-05-06T01:53:50.726Z,-0.64
2019-05-06T01:54:50.704Z,-0.69
2019-05-06T01:55:50.702Z,-0.67
2019-05-06T01:56:50.723Z,-0.64
2019-05-06T01:57:50.685Z,-0.70
2019-05-06T01:58:50.708Z,-0.75
2019-05-06T01:59:50.666Z,-0.73
2019-05-06T02:00:50.645Z,-0.73
2019-05-06T02:01:59.940Z,-0.86
2019-05-06T02:02:51.643Z,-0.82
2019-05-06T02:03:50.624Z,-0.98
2019-05-06T02:04:50.639Z,-0.99
2019-05-06T02:05:50.592Z,-0.95
2019-05-06T02:06:50.586Z,-1.01
2019-05-06T02:07:50.594Z,-1.05
2019-05-06T02:08:50.558Z,-0.99
2019-05-06T02:09:50.543Z,-0.98
2019-05-06T02:10:50.568Z,-1.01
2019-05-06T02:11:50.535Z,-0.97
2019-05-06T02:12:50.516Z,-0.99
2019-05-06T02:13:50.534Z,-0.94
2019-05-06T02:14:50.492Z,-1.05
2019-05-06T02:15:50.489Z,-0.99
2019-05-06T02:16:50.499Z,-1.01
2019-05-06T02:17:50.453Z,-1.02
2019-05-06T02:18:50.452Z,-1.01
2019-05-06T02:19:50.443Z,-1.10
2019-05-06T02:20:50.428Z,-1.01
2019-05-06T02:21:50.422Z,-1.12
2019-05-06T02:22:50.400Z,-0.98
2019-05-06T02:23:50.410Z,-1.04
2019-05-06T02:24:50.392Z,-1.02
2019-05-06T02:25:50.371Z,-0.98
2019-05-06T02:26:50.357Z,-1.05
2019-05-06T02:27:50.351Z,-1.09
2019-05-06T02:28:50.328Z,-1.01
2019-05-06T02:29:50.391Z,-1.02
2019-05-06T02:30:50.318Z,-1.09
2019-05-06T02:31:50.303Z,-1.07
2019-05-06T02:32:50.292Z,-0.98
2019-05-06T02:33:50.274Z,-1.05
2019-05-06T02:34:50.281Z,-1.09
2019-05-06T02:35:50.308Z,-1.01
2019-05-06T02:36:50.249Z,-0.99
2019-05-06T02:37:50.234Z,-0.99
2019-05-06T02:38:54.776Z,-0.99
2019-05-06T02:39:53.280Z,-1.01
2019-05-06T02:40:53.366Z,-1.10
2019-05-06T02:41:50.207Z,-1.05
2019-05-06T02:42:50.180Z,-0.98
2019-05-06T02:43:50.164Z,-0.98
2019-05-06T02:44:50.162Z,-1.15
2019-05-06T02:45:53.130Z,-1.09
2019-05-06T02:46:53.142Z,-0.98
2019-05-06T02:47:50.170Z,-0.98
2019-05-06T02:48:50.113Z,-1.13
2019-05-06T02:49:53.246Z,-1.02
2019-05-06T02:50:53.469Z,-1.12
2019-05-06T02:51:53.256Z,-1.01
2019-05-06T02:52:53.475Z,-1.05
2019-05-06T02:53:50.080Z,-1.04
2019-05-06T02:54:50.057Z,-1.07
2019-05-06T02:55:52.862Z,-0.99
2019-05-06T02:56:52.913Z,-0.95
2019-05-06T02:57:53.309Z,-0.92
2019-05-06T02:58:53.157Z,-0.98
2019-05-06T02:59:49.996Z,-0.92
2019-05-06T03:00:49.998Z,-0.92
2019-05-06T03:01:49.973Z,-0.82
2019-05-06T03:02:49.958Z,-0.79
2019-05-06T03:03:49.975Z,-0.89
2019-05-06T03:04:52.586Z,-0.89
2019-05-06T03:05:52.932Z,-0.86
2019-05-06T03:06:52.963Z,-0.82
2019-05-06T03:07:49.910Z,-0.78
2019-05-06T03:08:49.887Z,-0.83
2019-05-06T03:09:52.913Z,-0.78
2019-05-06T03:10:53.080Z,-0.82
2019-05-06T03:11:49.855Z,-0.78
2019-05-06T03:12:49.873Z,-0.82
2019-05-06T03:13:49.835Z,-0.79
2019-05-06T03:14:53.006Z,-0.78
2019-05-06T03:15:49.818Z,-0.76
2019-05-06T03:16:53.395Z,-0.73
2019-05-06T03:17:49.786Z,-0.65
2019-05-06T03:18:52.872Z,-0.72
2019-05-06T03:19:52.591Z,-0.70
2019-05-06T03:20:49.761Z,-0.65
2019-05-06T03:21:49.770Z,-0.72
2019-05-06T03:22:49.760Z,-0.70
2019-05-06T03:23:49.719Z,-0.79
2019-05-06T03:24:49.751Z,-0.70
2019-05-06T03:25:53.003Z,-0.65
2019-05-06T03:26:49.703Z,-0.75
2019-05-06T03:27:49.669Z,-0.67
2019-05-06T03:28:49.665Z,-0.67
2019-05-06T03:29:49.670Z,-0.67
2019-05-06T03:30:49.661Z,-0.73
2019-05-06T03:31:49.619Z,-0.72
2019-05-06T03:33:27.456Z,-0.70
2019-05-06T03:34:16.222Z,-0.67
2019-05-06T03:35:07.620Z,-0.69
2019-05-06T03:36:05.338Z,-0.64
2019-05-06T03:36:55.571Z,-0.64
2019-05-06T03:37:53.434Z,-0.62
2019-05-06T03:38:49.556Z,-0.65
2019-05-06T03:39:52.639Z,-0.65
2019-05-06T03:40:49.534Z,-0.61
2019-05-06T03:41:49.549Z,-0.58
2019-05-06T03:42:49.501Z,-0.52
2019-05-06T03:43:49.494Z,-0.57
2019-05-06T03:44:49.488Z,-0.60
2019-05-06T03:45:49.473Z,-0.52
2019-05-06T03:46:49.495Z,-0.57
2019-05-06T03:47:49.489Z,-0.51
2019-05-06T03:48:49.439Z,-0.46
2019-05-06T03:49:50.408Z,-0.47
2019-05-06T03:50:49.419Z,-0.46
2019-05-06T03:51:49.405Z,-0.44
2019-05-06T03:52:49.416Z,-0.49
2019-05-06T03:53:49.404Z,-0.46
2019-05-06T03:54:49.369Z,-0.37
2019-05-06T03:55:49.357Z,-0.39
2019-05-06T03:56:49.357Z,-0.36
2019-05-06T03:57:49.341Z,-0.28
2019-05-06T03:58:49.339Z,-0.23
2019-05-06T03:59:49.351Z,-0.25
2019-05-06T04:00:49.301Z,-0.21
2019-05-06T04:01:49.298Z,-0.23
2019-05-06T04:02:49.282Z,-0.21
2019-05-06T04:03:53.728Z,-0.15
2019-05-06T04:04:55.736Z,-0.07
2019-05-06T04:05:52.498Z,-0.03
2019-05-06T04:06:53.127Z,0.04
2019-05-06T04:07:49.237Z,0.07
2019-05-06T04:08:49.246Z,0.11
2019-05-06T04:09:49.200Z,0.11
2019-05-06T04:10:49.619Z,0.28
2019-05-06T04:11:49.178Z,0.23
2019-05-06T04:12:49.174Z,0.31
2019-05-06T04:13:49.179Z,0.35
2019-05-06T04:14:49.171Z,0.49
2019-05-06T04:15:49.143Z,0.49
2019-05-06T04:16:49.223Z,0.61
2019-05-06T04:17:49.119Z,0.68
2019-05-06T04:18:49.102Z,0.78
2019-05-06T04:19:49.104Z,0.90
2019-05-06T04:20:49.122Z,0.84
2019-05-06T04:21:49.068Z,0.91
2019-05-06T04:22:49.099Z,0.96
2019-05-06T04:23:49.072Z,1.09
2019-05-06T04:24:49.049Z,1.14
2019-05-06T04:25:49.029Z,1.22
2019-05-06T04:26:49.043Z,1.29
2019-05-06T04:27:49.023Z,1.18
2019-05-06T04:28:48.986Z,1.27
2019-05-06T04:29:48.979Z,1.33
2019-05-06T04:30:49.910Z,1.32
2019-05-06T04:31:48.980Z,1.36
2019-05-06T04:32:48.956Z,1.40
2019-05-06T04:34:07.342Z,1.40
2019-05-06T04:34:53.194Z,1.37
2019-05-06T04:35:48.913Z,1.41
2019-05-06T04:36:48.900Z,1.50
2019-05-06T04:37:48.927Z,1.50
2019-05-06T04:38:48.888Z,1.51
2019-05-06T04:39:48.889Z,1.52
2019-05-06T04:40:48.860Z,1.54
2019-05-06T04:41:48.844Z,1.59
2019-05-06T04:42:48.840Z,1.59
2019-05-06T04:43:48.850Z,1.73
2019-05-06T04:44:48.813Z,1.66
2019-05-06T04:45:48.839Z,1.73
2019-05-06T04:46:48.778Z,1.76
2019-05-06T04:47:48.783Z,1.80
2019-05-06T04:48:48.771Z,1.77
2019-05-06T04:49:48.766Z,1.77
2019-05-06T04:50:48.744Z,1.80
2019-05-06T04:51:48.752Z,1.72
2019-05-06T04:52:48.726Z,1.79
2019-05-06T04:53:48.721Z,1.79
2019-05-06T04:54:48.708Z,1.80
2019-05-06T04:55:48.692Z,1.86
2019-05-06T04:56:48.725Z,1.88
2019-05-06T04:57:48.675Z,1.99
2019-05-06T04:58:48.670Z,1.88
2019-05-06T04:59:48.703Z,1.91
2019-05-06T05:00:48.675Z,1.99
2019-05-06T05:01:48.630Z,2.00
2019-05-06T05:02:48.606Z,2.05
2019-05-06T05:03:48.675Z,2.06
2019-05-06T05:04:48.611Z,2.02
2019-05-06T05:05:48.615Z,2.06
2019-05-06T05:06:48.581Z,2.07
2019-05-06T05:07:48.549Z,2.06
2019-05-06T05:08:48.610Z,2.05
2019-05-06T05:09:48.542Z,2.12
2019-05-06T05:10:48.565Z,2.07
2019-05-06T05:11:48.564Z,2.07
2019-05-06T05:12:48.513Z,2.03
2019-05-06T05:13:48.500Z,2.17
2019-05-06T05:14:48.479Z,2.16
2019-05-06T05:15:48.475Z,2.05
2019-05-06T05:16:48.489Z,2.18
2019-05-06T05:17:48.483Z,2.10
2019-05-06T05:18:48.435Z,2.18
2019-05-06T05:19:48.423Z,2.20
2019-05-06T05:20:48.419Z,2.21
2019-05-06T05:21:48.393Z,2.16
2019-05-06T05:22:48.430Z,2.21
2019-05-06T05:23:48.418Z,2.20
2019-05-06T05:24:48.370Z,2.24
2019-05-06T05:25:48.348Z,2.14
2019-05-06T05:26:48.349Z,2.20
2019-05-06T05:27:48.457Z,2.20
2019-05-06T05:28:48.379Z,2.18
2019-05-06T05:29:48.305Z,2.17
2019-05-06T05:30:48.317Z,2.21
2019-05-06T05:31:48.289Z,2.17
2019-05-06T05:32:48.290Z,2.21
2019-05-06T05:33:48.278Z,2.25
2019-05-06T05:34:48.317Z,2.24
2019-05-06T05:35:48.904Z,2.25
2019-05-06T05:36:48.231Z,2.24
2019-05-06T05:37:48.238Z,2.28
2019-05-06T05:38:48.212Z,2.31
2019-05-06T05:39:48.231Z,2.21
2019-05-06T05:40:48.187Z,2.27
2019-05-06T05:41:48.171Z,2.36
2019-05-06T05:42:48.171Z,2.36
2019-05-06T05:43:48.180Z,2.46
2019-05-06T05:44:48.151Z,2.46
2019-05-06T05:45:48.188Z,2.43
2019-05-06T05:46:48.127Z,2.38
2019-05-06T05:47:48.113Z,2.45
2019-05-06T05:48:48.106Z,2.52
2019-05-06T05:49:48.097Z,2.52
2019-05-06T05:50:48.088Z,2.53
2019-05-06T05:51:48.164Z,2.60
2019-05-06T05:53:09.126Z,2.66
2019-05-06T05:53:48.048Z,2.63
2019-05-06T05:54:48.029Z,2.77
2019-05-06T05:55:48.021Z,2.61
2019-05-06T05:56:48.022Z,2.78
2019-05-06T05:57:48.057Z,2.72
2019-05-06T05:58:48.004Z,2.82
2019-05-06T05:59:47.963Z,2.85
2019-05-06T06:00:47.971Z,2.85
2019-05-06T06:01:47.948Z,2.89
2019-05-06T06:02:47.986Z,3.00
2019-05-06T06:03:47.947Z,3.13
2019-05-06T06:04:56.469Z,3.14
2019-05-06T06:05:47.940Z,3.26
2019-05-06T06:06:47.901Z,3.31
2019-05-06T06:07:47.902Z,3.26
2019-05-06T06:08:47.920Z,3.33
2019-05-06T06:09:47.850Z,3.47
2019-05-06T06:10:47.853Z,3.43
2019-05-06T06:11:47.874Z,3.55
2019-05-06T06:12:47.829Z,3.57
2019-05-06T06:13:47.811Z,3.69
2019-05-06T06:14:47.824Z,3.68
2019-05-06T06:15:47.819Z,3.76
2019-05-06T06:16:47.782Z,3.68
2019-05-06T06:17:47.832Z,3.73
2019-05-06T06:18:47.783Z,3.84
2019-05-06T06:19:47.776Z,3.75
2019-05-06T06:20:47.736Z,3.80
2019-05-06T06:21:47.726Z,3.93
2019-05-06T06:22:47.748Z,3.96
2019-05-06T06:23:47.702Z,4.00
2019-05-06T06:24:47.693Z,4.02
2019-05-06T06:25:47.694Z,4.02
2019-05-06T06:26:47.666Z,4.09
2019-05-06T06:27:47.654Z,4.02
2019-05-06T06:28:47.641Z,4.14
2019-05-06T06:29:47.705Z,4.12
2019-05-06T06:30:47.641Z,4.30
2019-05-06T06:31:47.622Z,4.33
2019-05-06T06:32:47.596Z,4.47
2019-05-06T06:33:47.584Z,4.52
2019-05-06T06:34:47.587Z,4.92
2019-05-06T06:35:47.597Z,5.54
2019-05-06T06:36:47.622Z,6.14
2019-05-06T06:37:47.583Z,6.66
2019-05-06T06:38:47.523Z,6.88
2019-05-06T06:39:47.530Z,7.27
2019-05-06T06:40:47.537Z,6.94
2019-05-06T06:41:47.537Z,6.94
2019-05-06T06:42:47.483Z,7.16
2019-05-06T06:43:47.505Z,7.13
2019-05-06T06:44:47.468Z,6.76
2019-05-06T06:45:47.457Z,7.15
2019-05-06T06:46:47.440Z,6.85
2019-05-06T06:47:47.458Z,6.69
2019-05-06T06:48:47.425Z,6.77
2019-05-06T06:49:47.414Z,6.94
2019-05-06T06:50:47.464Z,6.92
2019-05-06T06:51:47.387Z,7.09
2019-05-06T06:52:47.364Z,6.94
2019-05-06T06:53:47.387Z,6.84
2019-05-06T06:54:47.348Z,6.67
2019-05-06T06:55:47.331Z,6.33
2019-05-06T06:56:47.319Z,6.12
2019-05-06T06:57:47.310Z,6.11
2019-05-06T06:58:47.351Z,5.91
2019-05-06T06:59:47.347Z,6.00
2019-05-06T07:00:47.286Z,6.04
2019-05-06T07:01:47.269Z,6.00
2019-05-06T07:02:47.256Z,5.90
2019-05-06T07:03:47.237Z,5.83
2019-05-06T07:04:47.246Z,5.68
2019-05-06T07:05:47.215Z,5.63
2019-05-06T07:06:47.231Z,5.40
2019-05-06T07:07:47.932Z,5.30
2019-05-06T07:08:47.286Z,5.10
2019-05-06T07:09:47.214Z,5.09
2019-05-06T07:10:47.168Z,5.12
2019-05-06T07:11:47.189Z,5.03
2019-05-06T07:12:47.160Z,4.91
2019-05-06T07:13:47.125Z,4.92
2019-05-06T07:14:47.124Z,5.02
2019-05-06T07:15:47.126Z,5.18
2019-05-06T07:16:47.120Z,5.54
2019-05-06T07:17:47.086Z,5.91
2019-05-06T07:18:47.139Z,6.28
2019-05-06T07:19:47.073Z,6.52
2019-05-06T07:20:47.090Z,6.81
2019-05-06T07:21:47.041Z,7.06
2019-05-06T07:22:47.162Z,7.17
2019-05-06T07:23:47.052Z,7.12
2019-05-06T07:24:47.011Z,7.27
2019-05-06T07:25:46.998Z,7.42
2019-05-06T07:26:46.989Z,7.55
2019-05-06T07:27:46.982Z,7.61
2019-05-06T07:28:46.975Z,7.63
2019-05-06T07:29:48.671Z,7.82
2019-05-06T07:30:46.932Z,7.95
2019-05-06T07:31:46.949Z,7.98
2019-05-06T07:32:46.908Z,7.92
2019-05-06T07:33:46.903Z,7.98
2019-05-06T07:34:46.918Z,7.95
2019-05-06T07:35:46.880Z,7.92
2019-05-06T07:36:46.865Z,7.87
2019-05-06T07:37:46.888Z,7.89
2019-05-06T07:38:46.850Z,7.77
2019-05-06T07:39:46.831Z,7.77
2019-05-06T07:40:46.825Z,7.86
2019-05-06T07:41:46.871Z,7.77
2019-05-06T07:42:46.817Z,7.82
2019-05-06T07:43:46.806Z,7.80
2019-05-06T07:44:46.789Z,7.52
2019-05-06T07:45:46.810Z,7.50
2019-05-06T07:46:46.758Z,7.42
2019-05-06T07:47:46.753Z,7.40
2019-05-06T07:48:46.797Z,7.48
2019-05-06T07:49:46.908Z,7.60
2019-05-06T07:50:49.173Z,7.55
2019-05-06T07:51:46.691Z,7.53
2019-05-06T07:52:46.685Z,7.58
2019-05-06T07:53:46.681Z,7.63
2019-05-06T07:54:46.690Z,7.52
2019-05-06T07:55:46.651Z,7.27
2019-05-06T07:56:46.705Z,7.13
2019-05-06T07:57:49.667Z,7.07
2019-05-06T07:58:46.648Z,7.10
2019-05-06T07:59:46.636Z,6.98
2019-05-06T08:00:46.645Z,6.97
2019-05-06T08:01:46.595Z,6.74
2019-05-06T08:02:46.575Z,6.59
2019-05-06T08:03:46.575Z,6.59
2019-05-06T08:04:46.574Z,6.52
2019-05-06T08:05:55.864Z,6.58
2019-05-06T08:06:46.531Z,6.52
2019-05-06T08:07:46.552Z,6.51
2019-05-06T08:08:46.553Z,6.51
2019-05-06T08:09:46.486Z,6.37
2019-05-06T08:10:46.502Z,6.12
2019-05-06T08:11:46.472Z,6.15
2019-05-06T08:12:46.474Z,6.11
2019-05-06T08:13:46.446Z,6.34
2019-05-06T08:14:46.479Z,6.62
2019-05-06T08:15:46.421Z,6.81
2019-05-06T08:16:46.456Z,6.79
2019-05-06T08:17:46.391Z,6.88
2019-05-06T08:18:46.399Z,6.98
2019-05-06T08:19:46.378Z,7.05
2019-05-06T08:20:46.389Z,7.23
2019-05-06T08:21:46.391Z,7.15
2019-05-06T08:22:46.332Z,7.16
2019-05-06T08:23:46.347Z,7.25
2019-05-06T08:24:46.314Z,7.12
2019-05-06T08:25:46.303Z,6.95
2019-05-06T08:26:46.290Z,7.07
2019-05-06T08:27:49.406Z,7.12
2019-05-06T08:28:46.273Z,7.13
2019-05-06T08:29:46.294Z,7.32
2019-05-06T08:30:46.248Z,7.27
2019-05-06T08:31:46.273Z,7.24
2019-05-06T08:32:46.218Z,7.10
2019-05-06T08:33:46.224Z,7.02
2019-05-06T08:34:46.220Z,6.79
2019-05-06T08:35:46.240Z,6.79
2019-05-06T08:36:46.207Z,6.87
2019-05-06T08:37:46.186Z,6.80
2019-05-06T08:38:46.249Z,6.88
2019-05-06T08:39:46.310Z,6.79
2019-05-06T08:40:46.162Z,6.81
2019-05-06T08:41:46.127Z,6.84
2019-05-06T08:42:46.104Z,6.70
2019-05-06T08:43:46.095Z,6.73
2019-05-06T08:44:46.162Z,6.58
2019-05-06T08:45:46.099Z,6.71
2019-05-06T08:46:46.090Z,6.71
2019-05-06T08:47:46.092Z,6.73
2019-05-06T08:48:46.069Z,6.73
2019-05-06T08:49:49.188Z,6.80
2019-05-06T08:50:46.032Z,7.10
2019-05-06T08:51:46.006Z,7.13
2019-05-06T08:52:46.030Z,7.24
2019-05-06T08:53:45.999Z,7.30
2019-05-06T08:54:46.013Z,7.52
2019-05-06T08:55:46.000Z,7.61
2019-05-06T08:56:45.945Z,7.80
2019-05-06T08:57:45.981Z,7.92
2019-05-06T08:58:45.970Z,8.02
2019-05-06T08:59:45.979Z,7.95
2019-05-06T09:00:45.902Z,8.04
2019-05-06T09:01:45.908Z,8.11
2019-05-06T09:02:46.280Z,8.25
2019-05-06T09:03:45.862Z,8.29
2019-05-06T09:04:45.893Z,8.22
2019-05-06T09:05:45.848Z,8.16
2019-05-06T09:06:45.875Z,7.92
2019-05-06T09:07:45.834Z,7.64
2019-05-06T09:08:45.820Z,7.55
2019-05-06T09:09:45.795Z,7.43
2019-05-06T09:10:45.792Z,7.42
2019-05-06T09:11:45.773Z,7.37
2019-05-06T09:12:45.832Z,7.35
2019-05-06T09:13:45.758Z,7.27
2019-05-06T09:14:45.759Z,7.15
2019-05-06T09:15:45.749Z,7.13
2019-05-06T09:16:45.767Z,7.06
2019-05-06T09:17:45.755Z,7.28
2019-05-06T09:18:45.699Z,7.57
2019-05-06T09:19:45.759Z,7.80
2019-05-06T09:20:45.726Z,8.15
2019-05-06T09:21:46.482Z,8.34
2019-05-06T09:22:45.657Z,8.47
2019-05-06T09:23:45.768Z,8.48
2019-05-06T09:24:45.627Z,8.50
2019-05-06T09:25:45.630Z,8.53
2019-05-06T09:26:45.611Z,8.47
2019-05-06T09:27:45.617Z,8.45
2019-05-06T09:28:45.579Z,8.34
2019-05-06T09:29:45.599Z,8.10
2019-05-06T09:30:45.555Z,8.02
2019-05-06T09:31:45.547Z,7.90
2019-05-06T09:32:45.543Z,7.68
2019-05-06T09:33:45.542Z,7.57
2019-05-06T09:34:45.538Z,7.31
2019-05-06T09:35:45.513Z,7.15
2019-05-06T09:36:51.691Z,6.99
2019-05-06T09:37:46.487Z,6.79
2019-05-06T09:38:45.474Z,6.80
2019-05-06T09:39:45.481Z,6.84
2019-05-06T09:40:45.453Z,6.80
2019-05-06T09:41:46.399Z,6.79
2019-05-06T09:42:45.443Z,6.85
2019-05-06T09:43:45.412Z,6.79
2019-05-06T09:44:45.453Z,6.94
2019-05-06T09:45:45.390Z,6.98
2019-05-06T09:46:45.376Z,7.06
2019-05-06T09:47:45.375Z,7.16
2019-05-06T09:48:45.396Z,7.31
2019-05-06T09:49:45.344Z,7.27
2019-05-06T09:50:46.547Z,7.32
2019-05-06T09:51:45.326Z,7.07
2019-05-06T09:52:45.316Z,6.92
2019-05-06T09:53:45.304Z,6.71
2019-05-06T09:54:45.312Z,6.70
2019-05-06T09:55:45.291Z,6.77
2019-05-06T09:56:45.259Z,6.84
2019-05-06T09:57:45.254Z,6.97
2019-05-06T09:58:45.253Z,7.06
2019-05-06T09:59:45.238Z,7.23
2019-05-06T10:00:45.222Z,7.43
2019-05-06T10:01:45.258Z,7.60
2019-05-06T10:02:45.206Z,7.63
2019-05-06T10:03:45.187Z,7.68
2019-05-06T10:04:45.170Z,7.60
2019-05-06T10:05:45.176Z,7.49
2019-05-06T10:06:56.231Z,7.52
2019-05-06T10:07:46.194Z,7.53
2019-05-06T10:08:45.143Z,7.50
2019-05-06T10:09:45.174Z,7.37
2019-05-06T10:10:56.036Z,7.31
2019-05-06T10:11:46.086Z,7.13
2019-05-06T10:12:45.101Z,7.09
2019-05-06T10:13:45.069Z,6.98
2019-05-06T10:14:45.056Z,6.81
2019-05-06T10:15:45.039Z,6.61
2019-05-06T10:16:45.073Z,6.49
2019-05-06T10:17:45.028Z,6.38
2019-05-06T10:18:45.033Z,6.18
2019-05-06T10:19:44.993Z,6.11
2019-05-06T10:20:45.006Z,6.06
2019-05-06T10:21:44.978Z,6.03
2019-05-06T10:22:44.982Z,5.94
2019-05-06T10:23:44.986Z,5.96
2019-05-06T10:24:44.955Z,6.06
2019-05-06T10:25:44.938Z,6.08
2019-05-06T10:26:44.918Z,6.06
2019-05-06T10:27:44.952Z,6.12
2019-05-06T10:28:44.917Z,6.15
2019-05-06T10:29:44.921Z,6.08
2019-05-06T10:30:44.908Z,6.04
2019-05-06T10:31:44.869Z,6.18
2019-05-06T10:32:44.854Z,6.14
2019-05-06T10:33:44.843Z,6.14
2019-05-06T10:34:44.835Z,6.11
2019-05-06T10:35:44.864Z,6.08
2019-05-06T10:36:44.801Z,6.03
2019-05-06T10:37:44.804Z,6.06
2019-05-06T10:38:44.796Z,6.04
2019-05-06T10:39:44.771Z,6.15
2019-05-06T10:40:59.727Z,6.31
2019-05-06T10:41:45.747Z,6.40
2019-05-06T10:42:44.736Z,6.55
2019-05-06T10:43:44.732Z,6.69
2019-05-06T10:44:44.737Z,6.73
2019-05-06T10:45:44.770Z,6.80
2019-05-06T10:46:44.763Z,7.05
2019-05-06T10:47:44.687Z,7.17
2019-05-06T10:48:44.660Z,7.30
2019-05-06T10:49:44.662Z,7.40
2019-05-06T10:50:44.682Z,7.42
2019-05-06T10:51:44.652Z,7.67
2019-05-06T10:52:44.615Z,7.57
2019-05-06T10:53:44.603Z,7.60
2019-05-06T10:54:44.621Z,7.49
2019-05-06T10:55:44.626Z,7.57
2019-05-06T10:56:53.167Z,7.50
2019-05-06T10:57:45.571Z,7.40
2019-05-06T10:58:44.550Z,7.31
2019-05-06T10:59:44.543Z,7.40
2019-05-06T11:00:44.530Z,7.55
2019-05-06T11:01:44.558Z,7.53
2019-05-06T11:02:44.550Z,7.67
2019-05-06T11:03:44.502Z,7.50
2019-05-06T11:04:44.487Z,7.67
2019-05-06T11:05:44.480Z,7.61
2019-05-06T11:06:44.474Z,7.57
2019-05-06T11:07:44.491Z,7.52
2019-05-06T11:08:44.495Z,7.63
2019-05-06T11:09:44.439Z,7.64
2019-05-06T11:10:45.584Z,7.61
2019-05-06T11:11:44.409Z,7.58
2019-05-06T11:12:44.408Z,7.64
2019-05-06T11:13:44.397Z,7.82
2019-05-06T11:14:44.359Z,7.75
2019-05-06T11:15:44.358Z,7.72
2019-05-06T11:16:44.360Z,7.85
2019-05-06T11:17:44.391Z,7.89
2019-05-06T11:18:44.359Z,7.93
2019-05-06T11:19:44.313Z,8.04
2019-05-06T11:20:44.350Z,8.16
2019-05-06T11:21:45.072Z,8.34
2019-05-06T11:22:44.279Z,8.41
2019-05-06T11:23:44.290Z,8.50
2019-05-06T11:24:44.301Z,8.59
2019-05-06T11:25:44.306Z,8.52
2019-05-06T11:26:44.267Z,8.62
2019-05-06T11:27:45.090Z,8.55
2019-05-06T11:28:44.212Z,8.47
2019-05-06T11:29:44.207Z,8.33
2019-05-06T11:30:44.216Z,8.28
2019-05-06T11:31:44.175Z,8.12
2019-05-06T11:32:44.594Z,7.95
2019-05-06T11:33:44.187Z,7.92
2019-05-06T11:34:44.142Z,7.97
2019-05-06T11:35:44.126Z,7.93
2019-05-06T11:36:44.126Z,7.85
2019-05-06T11:37:50.059Z,7.87
2019-05-06T11:38:48.125Z,7.86
2019-05-06T11:39:44.093Z,7.87
2019-05-06T11:40:44.152Z,8.01
2019-05-06T11:42:01.080Z,8.19
2019-05-06T11:42:45.050Z,8.11
2019-05-06T11:43:44.043Z,8.25
2019-05-06T11:44:44.301Z,8.43
2019-05-06T11:45:44.020Z,8.47
2019-05-06T11:46:44.018Z,8.62
2019-05-06T11:47:44.011Z,8.62
2019-05-06T11:48:43.980Z,8.65
2019-05-06T11:49:44.276Z,8.56
2019-05-06T11:50:43.955Z,8.48
2019-05-06T11:51:43.950Z,8.45
2019-05-06T11:52:43.981Z,8.41
2019-05-06T11:53:43.918Z,8.28
2019-05-06T11:54:43.924Z,8.16
2019-05-06T11:55:43.901Z,8.00
2019-05-06T11:56:50.695Z,7.97
2019-05-06T11:57:44.927Z,7.89
2019-05-06T11:58:43.867Z,7.75
2019-05-06T11:59:43.885Z,7.74
2019-05-06T12:00:44.471Z,7.67
2019-05-06T12:01:43.869Z,7.49
2019-05-06T12:02:47.995Z,7.39
2019-05-06T12:03:43.819Z,7.39
2019-05-06T12:04:43.807Z,7.39
2019-05-06T12:05:43.774Z,7.45
2019-05-06T12:06:43.764Z,7.39
2019-05-06T12:08:00.518Z,7.39
2019-05-06T12:08:44.777Z,7.39
2019-05-06T12:09:43.732Z,7.28
2019-05-06T12:10:43.715Z,7.16
2019-05-06T12:11:43.711Z,7.10
2019-05-06T12:12:43.705Z,7.10
2019-05-06T12:13:43.706Z,7.16
2019-05-06T12:15:03.070Z,7.28
2019-05-06T12:15:53.094Z,7.42
2019-05-06T12:16:44.763Z,7.39
2019-05-06T12:17:44.373Z,7.49
2019-05-06T12:18:45.474Z,7.49
2019-05-06T12:19:47.135Z,7.52
2019-05-06T12:20:46.047Z,7.58
2019-05-06T12:21:45.467Z,7.74
2019-05-06T12:22:44.480Z,7.77
2019-05-06T12:23:45.017Z,7.90
2019-05-06T12:24:44.928Z,7.87
2019-05-06T12:25:52.784Z,8.07
2019-05-06T12:26:43.547Z,8.05
2019-05-06T12:27:43.536Z,8.07
2019-05-06T12:28:43.785Z,8.15
2019-05-06T12:29:43.605Z,8.33
2019-05-06T12:30:43.510Z,8.38
2019-05-06T12:31:43.517Z,8.48
2019-05-06T12:32:43.561Z,8.47
2019-05-06T12:33:43.464Z,8.45
2019-05-06T12:34:43.497Z,8.45
2019-05-06T12:35:43.431Z,8.52
2019-05-06T12:36:43.475Z,8.61
2019-05-06T12:37:44.030Z,8.48
2019-05-06T12:38:43.407Z,8.38
2019-05-06T12:39:43.393Z,8.47
2019-05-06T12:40:43.379Z,8.61
2019-05-06T12:41:43.408Z,8.63
2019-05-06T12:42:43.433Z,8.63
2019-05-06T12:43:43.352Z,8.66
2019-05-06T12:44:43.337Z,8.81
2019-05-06T12:45:43.336Z,8.81
2019-05-06T12:46:43.319Z,8.98
2019-05-06T12:47:43.321Z,8.91
2019-05-06T12:48:44.027Z,8.92
2019-05-06T12:49:43.284Z,9.04
2019-05-06T12:50:43.276Z,9.02
2019-05-06T12:51:43.487Z,9.13
2019-05-06T12:52:44.030Z,9.17
2019-05-06T12:53:43.243Z,9.24
2019-05-06T12:54:43.263Z,9.47
2019-05-06T12:55:43.314Z,9.76
2019-05-06T12:56:43.195Z,9.99
2019-05-06T12:57:43.495Z,10.22
2019-05-06T12:58:44.355Z,10.18
2019-05-06T12:59:43.181Z,10.04
2019-05-06T13:00:44.972Z,10.02
2019-05-06T13:01:45.572Z,9.78
2019-05-06T13:02:43.821Z,9.35
2019-05-06T13:03:43.392Z,9.04
2019-05-06T13:04:55.391Z,9.14
2019-05-06T13:05:44.089Z,8.92
2019-05-06T13:06:46.176Z,8.68
2019-05-06T13:07:43.074Z,8.73
2019-05-06T13:08:57.403Z,8.73
2019-05-06T13:09:45.502Z,8.83
2019-05-06T13:10:43.083Z,8.77